sensor_id;sensor_type;location;lat;lon;timestamp;P1;durP1;ratioP1;P2;durP2;ratioP2
8058;SDS011;4072;42.668;23.396;2022-07-18T00:02:21;2.80;;;2.20;;
8058;SDS011;4072;42.668;23.396;2022-07-18T00:04:49;2.33;;;2.07;;
8058;SDS011;4072;42.668;23.396;2022-07-18T00:07:20;3.47;;;2.33;;
8058;SDS011;4072;42.668;23.396;2022-07-18T00:09:48;3.67;;;2.37;;
8058;SDS011;4072;42.668;23.396;2022-07-18T00:12:16;2.50;;;2.30;;
8058;SDS011;4072;42.668;23.396;2022-07-18T00:14:44;2.33;;;2.00;;
8058;SDS011;4072;42.668;23.396;2022-07-18T00:17:13;2.67;;;2.00;;
8058;SDS011;4072;42.668;23.396;2022-07-18T00:19:40;3.27;;;2.37;;
8058;SDS011;4072;42.668;23.396;2022-07-18T00:22:09;6.20;;;2.50;;
8058;SDS011;4072;42.668;23.396;2022-07-18T00:24:38;2.07;;;1.87;;
8058;SDS011;4072;42.668;23.396;2022-07-18T00:27:07;2.20;;;2.00;;
8058;SDS011;4072;42.668;23.396;2022-07-18T00:29:35;3.23;;;2.30;;
8058;SDS011;4072;42.668;23.396;2022-07-18T00:32:04;2.30;;;2.10;;
8058;SDS011;4072;42.668;23.396;2022-07-18T00:34:33;2.10;;;1.87;;
8058;SDS011;4072;42.668;23.396;2022-07-18T00:37:01;2.07;;;1.87;;
8058;SDS011;4072;42.668;23.396;2022-07-18T00:39:29;1.90;;;1.80;;
8058;SDS011;4072;42.668;23.396;2022-07-18T00:41:58;2.90;;;2.33;;
8058;SDS011;4072;42.668;23.396;2022-07-18T00:44:27;3.67;;;2.33;;
8058;SDS011;4072;42.668;23.396;2022-07-18T00:46:56;3.00;;;2.57;;
8058;SDS011;4072;42.668;23.396;2022-07-18T00:49:24;2.87;;;1.50;;
8058;SDS011;4072;42.668;23.396;2022-07-18T00:51:53;4.53;;;1.90;;
8058;SDS011;4072;42.668;23.396;2022-07-18T00:54:21;2.97;;;2.00;;
8058;SDS011;4072;42.668;23.396;2022-07-18T00:56:49;4.60;;;2.30;;
8058;SDS011;4072;42.668;23.396;2022-07-18T00:59:19;2.43;;;1.50;;
8058;SDS011;4072;42.668;23.396;2022-07-18T01:01:47;3.53;;;1.80;;
8058;SDS011;4072;42.668;23.396;2022-07-18T01:04:16;2.27;;;1.90;;
8058;SDS011;4072;42.668;23.396;2022-07-18T01:06:44;2.10;;;1.80;;
8058;SDS011;4072;42.668;23.396;2022-07-18T01:09:12;1.90;;;1.70;;
8058;SDS011;4072;42.668;23.396;2022-07-18T01:11:40;2.30;;;1.63;;
8058;SDS011;4072;42.668;23.396;2022-07-18T01:14:08;1.70;;;1.60;;
8058;SDS011;4072;42.668;23.396;2022-07-18T01:16:37;3.00;;;2.03;;
8058;SDS011;4072;42.668;23.396;2022-07-18T01:19:06;2.33;;;1.40;;
8058;SDS011;4072;42.668;23.396;2022-07-18T01:21:36;2.97;;;1.90;;
8058;SDS011;4072;42.668;23.396;2022-07-18T01:24:04;1.87;;;1.70;;
8058;SDS011;4072;42.668;23.396;2022-07-18T01:26:32;1.60;;;1.50;;
8058;SDS011;4072;42.668;23.396;2022-07-18T01:29:00;3.27;;;1.53;;
8058;SDS011;4072;42.668;23.396;2022-07-18T01:31:28;1.70;;;1.60;;
8058;SDS011;4072;42.668;23.396;2022-07-18T01:34:00;2.20;;;1.70;;
8058;SDS011;4072;42.668;23.396;2022-07-18T01:36:30;1.63;;;1.53;;
8058;SDS011;4072;42.668;23.396;2022-07-18T01:39:00;3.80;;;1.80;;
8058;SDS011;4072;42.668;23.396;2022-07-18T01:41:28;2.00;;;1.80;;
8058;SDS011;4072;42.668;23.396;2022-07-18T01:43:56;1.60;;;1.50;;
8058;SDS011;4072;42.668;23.396;2022-07-18T01:46:23;1.80;;;1.70;;
8058;SDS011;4072;42.668;23.396;2022-07-18T01:48:52;3.00;;;1.60;;
8058;SDS011;4072;42.668;23.396;2022-07-18T01:51:19;1.60;;;1.50;;
8058;SDS011;4072;42.668;23.396;2022-07-18T01:53:53;4.10;;;1.60;;
8058;SDS011;4072;42.668;23.396;2022-07-18T01:56:22;1.40;;;1.30;;
8058;SDS011;4072;42.668;23.396;2022-07-18T01:58:50;4.80;;;1.53;;
8058;SDS011;4072;42.668;23.396;2022-07-18T02:01:18;3.00;;;1.60;;
8058;SDS011;4072;42.668;23.396;2022-07-18T02:03:46;2.40;;;1.30;;
8058;SDS011;4072;42.668;23.396;2022-07-18T02:06:15;2.50;;;1.50;;
8058;SDS011;4072;42.668;23.396;2022-07-18T02:08:43;1.70;;;1.50;;
8058;SDS011;4072;42.668;23.396;2022-07-18T02:11:10;3.80;;;1.23;;
8058;SDS011;4072;42.668;23.396;2022-07-18T02:13:40;4.57;;;1.80;;
8058;SDS011;4072;42.668;23.396;2022-07-18T02:16:08;1.50;;;1.40;;
8058;SDS011;4072;42.668;23.396;2022-07-18T02:18:36;1.67;;;1.57;;
8058;SDS011;4072;42.668;23.396;2022-07-18T02:21:08;4.07;;;1.70;;
8058;SDS011;4072;42.668;23.396;2022-07-18T02:23:36;2.50;;;1.57;;
8058;SDS011;4072;42.668;23.396;2022-07-18T02:26:04;3.83;;;1.83;;
8058;SDS011;4072;42.668;23.396;2022-07-18T02:28:32;2.20;;;1.50;;
8058;SDS011;4072;42.668;23.396;2022-07-18T02:31:06;2.57;;;1.53;;
8058;SDS011;4072;42.668;23.396;2022-07-18T02:33:35;2.80;;;1.30;;
8058;SDS011;4072;42.668;23.396;2022-07-18T02:36:03;2.50;;;1.77;;
8058;SDS011;4072;42.668;23.396;2022-07-18T02:38:31;2.70;;;1.50;;
8058;SDS011;4072;42.668;23.396;2022-07-18T02:40:59;2.07;;;1.90;;
8058;SDS011;4072;42.668;23.396;2022-07-18T02:43:27;2.93;;;1.63;;
8058;SDS011;4072;42.668;23.396;2022-07-18T02:45:55;2.97;;;2.23;;
8058;SDS011;4072;42.668;23.396;2022-07-18T02:48:25;2.30;;;2.10;;
8058;SDS011;4072;42.668;23.396;2022-07-18T02:50:53;3.57;;;2.37;;
8058;SDS011;4072;42.668;23.396;2022-07-18T02:53:21;4.03;;;2.87;;
8058;SDS011;4072;42.668;23.396;2022-07-18T02:55:50;4.10;;;2.67;;
8058;SDS011;4072;42.668;23.396;2022-07-18T02:58:18;3.87;;;2.73;;
8058;SDS011;4072;42.668;23.396;2022-07-18T03:00:46;8.87;;;4.50;;
8058;SDS011;4072;42.668;23.396;2022-07-18T03:03:14;6.37;;;3.17;;
8058;SDS011;4072;42.668;23.396;2022-07-18T03:05:44;6.40;;;3.30;;
8058;SDS011;4072;42.668;23.396;2022-07-18T03:08:11;5.60;;;3.50;;
8058;SDS011;4072;42.668;23.396;2022-07-18T03:10:39;6.27;;;3.20;;
8058;SDS011;4072;42.668;23.396;2022-07-18T03:13:07;6.23;;;3.33;;
8058;SDS011;4072;42.668;23.396;2022-07-18T03:15:37;5.57;;;3.30;;
8058;SDS011;4072;42.668;23.396;2022-07-18T03:18:05;3.23;;;2.93;;
8058;SDS011;4072;42.668;23.396;2022-07-18T03:20:33;9.30;;;3.50;;
8058;SDS011;4072;42.668;23.396;2022-07-18T03:23:05;7.77;;;3.27;;
8058;SDS011;4072;42.668;23.396;2022-07-18T03:25:33;8.73;;;2.87;;
8058;SDS011;4072;42.668;23.396;2022-07-18T03:28:01;5.17;;;3.53;;
8058;SDS011;4072;42.668;23.396;2022-07-18T03:30:29;5.90;;;3.73;;
8058;SDS011;4072;42.668;23.396;2022-07-18T03:32:58;4.70;;;3.63;;
8058;SDS011;4072;42.668;23.396;2022-07-18T03:35:31;4.77;;;4.10;;
8058;SDS011;4072;42.668;23.396;2022-07-18T03:37:59;4.73;;;3.90;;
8058;SDS011;4072;42.668;23.396;2022-07-18T03:40:29;5.53;;;3.93;;
8058;SDS011;4072;42.668;23.396;2022-07-18T03:42:57;4.37;;;3.97;;
8058;SDS011;4072;42.668;23.396;2022-07-18T03:45:25;10.10;;;5.30;;
8058;SDS011;4072;42.668;23.396;2022-07-18T03:47:53;7.00;;;4.07;;
8058;SDS011;4072;42.668;23.396;2022-07-18T03:50:22;5.93;;;4.80;;
8058;SDS011;4072;42.668;23.396;2022-07-18T03:52:49;8.00;;;4.80;;
8058;SDS011;4072;42.668;23.396;2022-07-18T03:55:18;12.23;;;7.27;;
8058;SDS011;4072;42.668;23.396;2022-07-18T03:57:47;8.33;;;6.57;;
8058;SDS011;4072;42.668;23.396;2022-07-18T04:00:15;7.23;;;4.57;;
8058;SDS011;4072;42.668;23.396;2022-07-18T04:02:44;9.30;;;6.00;;
8058;SDS011;4072;42.668;23.396;2022-07-18T04:05:12;6.63;;;5.97;;
8058;SDS011;4072;42.668;23.396;2022-07-18T04:07:42;6.43;;;5.50;;
8058;SDS011;4072;42.668;23.396;2022-07-18T04:10:10;5.73;;;4.90;;
8058;SDS011;4072;42.668;23.396;2022-07-18T04:12:43;6.17;;;5.00;;
8058;SDS011;4072;42.668;23.396;2022-07-18T04:15:13;5.93;;;4.60;;
8058;SDS011;4072;42.668;23.396;2022-07-18T04:17:42;5.77;;;4.90;;
8058;SDS011;4072;42.668;23.396;2022-07-18T04:20:10;6.43;;;4.60;;
8058;SDS011;4072;42.668;23.396;2022-07-18T04:22:45;5.23;;;4.73;;
8058;SDS011;4072;42.668;23.396;2022-07-18T04:25:13;4.80;;;4.27;;
8058;SDS011;4072;42.668;23.396;2022-07-18T04:27:41;3.93;;;3.63;;
8058;SDS011;4072;42.668;23.396;2022-07-18T04:30:09;4.37;;;3.80;;
8058;SDS011;4072;42.668;23.396;2022-07-18T04:32:39;5.97;;;4.53;;
8058;SDS011;4072;42.668;23.396;2022-07-18T04:35:08;6.30;;;4.20;;
8058;SDS011;4072;42.668;23.396;2022-07-18T04:37:36;6.97;;;4.70;;
8058;SDS011;4072;42.668;23.396;2022-07-18T04:40:05;6.17;;;4.90;;
8058;SDS011;4072;42.668;23.396;2022-07-18T04:42:33;7.30;;;4.50;;
8058;SDS011;4072;42.668;23.396;2022-07-18T04:45:02;8.03;;;5.40;;
8058;SDS011;4072;42.668;23.396;2022-07-18T04:47:30;10.27;;;5.20;;
8058;SDS011;4072;42.668;23.396;2022-07-18T04:50:00;6.20;;;4.63;;
8058;SDS011;4072;42.668;23.396;2022-07-18T04:52:27;9.27;;;4.20;;
8058;SDS011;4072;42.668;23.396;2022-07-18T04:55:02;5.27;;;4.40;;
8058;SDS011;4072;42.668;23.396;2022-07-18T04:57:30;7.80;;;4.83;;
8058;SDS011;4072;42.668;23.396;2022-07-18T04:59:58;8.13;;;5.90;;
8058;SDS011;4072;42.668;23.396;2022-07-18T05:02:27;12.20;;;6.70;;
8058;SDS011;4072;42.668;23.396;2022-07-18T05:04:55;11.20;;;6.80;;
8058;SDS011;4072;42.668;23.396;2022-07-18T05:07:24;12.37;;;7.83;;
8058;SDS011;4072;42.668;23.396;2022-07-18T05:09:52;11.83;;;9.00;;
8058;SDS011;4072;42.668;23.396;2022-07-18T05:12:20;13.60;;;9.40;;
8058;SDS011;4072;42.668;23.396;2022-07-18T05:14:50;10.27;;;6.57;;
8058;SDS011;4072;42.668;23.396;2022-07-18T05:17:28;10.63;;;6.87;;
8058;SDS011;4072;42.668;23.396;2022-07-18T05:19:56;10.97;;;7.90;;
8058;SDS011;4072;42.668;23.396;2022-07-18T05:22:26;12.53;;;6.80;;
8058;SDS011;4072;42.668;23.396;2022-07-18T05:24:54;10.37;;;6.40;;
8058;SDS011;4072;42.668;23.396;2022-07-18T05:27:22;6.87;;;5.77;;
8058;SDS011;4072;42.668;23.396;2022-07-18T05:29:50;10.83;;;6.03;;
8058;SDS011;4072;42.668;23.396;2022-07-18T05:32:18;6.17;;;4.90;;
8058;SDS011;4072;42.668;23.396;2022-07-18T05:34:46;10.77;;;4.70;;
8058;SDS011;4072;42.668;23.396;2022-07-18T05:37:14;7.83;;;4.40;;
8058;SDS011;4072;42.668;23.396;2022-07-18T05:39:44;5.73;;;4.47;;
8058;SDS011;4072;42.668;23.396;2022-07-18T05:42:12;8.47;;;4.17;;
8058;SDS011;4072;42.668;23.396;2022-07-18T05:44:40;7.10;;;4.00;;
8058;SDS011;4072;42.668;23.396;2022-07-18T05:47:08;5.77;;;4.00;;
8058;SDS011;4072;42.668;23.396;2022-07-18T05:49:36;6.60;;;4.13;;
8058;SDS011;4072;42.668;23.396;2022-07-18T05:52:05;6.13;;;4.40;;
8058;SDS011;4072;42.668;23.396;2022-07-18T05:54:33;4.40;;;3.10;;
8058;SDS011;4072;42.668;23.396;2022-07-18T05:57:02;6.87;;;3.47;;
8058;SDS011;4072;42.668;23.396;2022-07-18T05:59:30;5.40;;;3.27;;
8058;SDS011;4072;42.668;23.396;2022-07-18T06:01:58;6.70;;;3.20;;
8058;SDS011;4072;42.668;23.396;2022-07-18T06:04:26;4.73;;;3.70;;
8058;SDS011;4072;42.668;23.396;2022-07-18T06:06:54;6.07;;;3.17;;
8058;SDS011;4072;42.668;23.396;2022-07-18T06:09:22;5.25;;;3.35;;
8058;SDS011;4072;42.668;23.396;2022-07-18T06:11:50;7.95;;;4.35;;
8058;SDS011;4072;42.668;23.396;2022-07-18T06:14:20;4.00;;;2.97;;
8058;SDS011;4072;42.668;23.396;2022-07-18T06:16:48;7.07;;;3.20;;
8058;SDS011;4072;42.668;23.396;2022-07-18T06:19:16;5.38;;;2.22;;
8058;SDS011;4072;42.668;23.396;2022-07-18T06:21:46;6.68;;;1.75;;
8058;SDS011;4072;42.668;23.396;2022-07-18T06:24:14;4.70;;;1.80;;
8058;SDS011;4072;42.668;23.396;2022-07-18T06:26:42;4.03;;;1.75;;
8058;SDS011;4072;42.668;23.396;2022-07-18T06:29:10;3.88;;;1.83;;
8058;SDS011;4072;42.668;23.396;2022-07-18T06:31:40;5.85;;;2.08;;
8058;SDS011;4072;42.668;23.396;2022-07-18T06:34:08;2.70;;;1.48;;
8058;SDS011;4072;42.668;23.396;2022-07-18T06:36:36;5.68;;;1.58;;
8058;SDS011;4072;42.668;23.396;2022-07-18T06:39:04;3.08;;;1.30;;
8058;SDS011;4072;42.668;23.396;2022-07-18T06:41:37;3.00;;;1.38;;
8058;SDS011;4072;42.668;23.396;2022-07-18T06:44:06;2.92;;;1.55;;
8058;SDS011;4072;42.668;23.396;2022-07-18T06:46:34;2.58;;;1.90;;
8058;SDS011;4072;42.668;23.396;2022-07-18T06:49:04;1.20;;;1.10;;
8058;SDS011;4072;42.668;23.396;2022-07-18T06:51:32;2.05;;;1.65;;
8058;SDS011;4072;42.668;23.396;2022-07-18T06:54:01;2.88;;;1.27;;
8058;SDS011;4072;42.668;23.396;2022-07-18T06:56:28;2.33;;;1.10;;
8058;SDS011;4072;42.668;23.396;2022-07-18T06:58:56;2.28;;;1.20;;
8058;SDS011;4072;42.668;23.396;2022-07-18T07:01:24;3.28;;;1.75;;
8058;SDS011;4072;42.668;23.396;2022-07-18T07:03:52;1.90;;;1.48;;
8058;SDS011;4072;42.668;23.396;2022-07-18T07:06:21;1.60;;;1.48;;
8058;SDS011;4072;42.668;23.396;2022-07-18T07:08:49;4.25;;;1.67;;
8058;SDS011;4072;42.668;23.396;2022-07-18T07:11:17;3.05;;;1.42;;
8058;SDS011;4072;42.668;23.396;2022-07-18T07:13:45;2.25;;;1.40;;
8058;SDS011;4072;42.668;23.396;2022-07-18T07:16:13;1.90;;;1.40;;
8058;SDS011;4072;42.668;23.396;2022-07-18T07:18:42;2.67;;;1.30;;
8058;SDS011;4072;42.668;23.396;2022-07-18T07:21:10;2.45;;;1.58;;
8058;SDS011;4072;42.668;23.396;2022-07-18T07:23:46;3.33;;;1.27;;
8058;SDS011;4072;42.668;23.396;2022-07-18T07:26:14;1.75;;;1.30;;
8058;SDS011;4072;42.668;23.396;2022-07-18T07:28:42;2.78;;;1.25;;
8058;SDS011;4072;42.668;23.396;2022-07-18T07:31:10;3.25;;;1.08;;
8058;SDS011;4072;42.668;23.396;2022-07-18T07:33:38;4.65;;;1.50;;
8058;SDS011;4072;42.668;23.396;2022-07-18T07:36:06;2.75;;;1.63;;
8058;SDS011;4072;42.668;23.396;2022-07-18T07:38:34;2.95;;;1.20;;
8058;SDS011;4072;42.668;23.396;2022-07-18T07:41:03;1.88;;;1.40;;
8058;SDS011;4072;42.668;23.396;2022-07-18T07:43:31;3.45;;;1.27;;
8058;SDS011;4072;42.668;23.396;2022-07-18T07:46:02;2.95;;;0.93;;
8058;SDS011;4072;42.668;23.396;2022-07-18T07:48:31;2.45;;;1.73;;
8058;SDS011;4072;42.668;23.396;2022-07-18T07:50:58;2.78;;;1.17;;
8058;SDS011;4072;42.668;23.396;2022-07-18T07:53:28;2.22;;;1.17;;
8058;SDS011;4072;42.668;23.396;2022-07-18T07:55:56;1.08;;;0.80;;
8058;SDS011;4072;42.668;23.396;2022-07-18T07:58:25;1.45;;;1.20;;
8058;SDS011;4072;42.668;23.396;2022-07-18T08:00:53;2.30;;;1.20;;
8058;SDS011;4072;42.668;23.396;2022-07-18T08:03:21;3.45;;;1.50;;
8058;SDS011;4072;42.668;23.396;2022-07-18T08:05:49;3.35;;;1.15;;
8058;SDS011;4072;42.668;23.396;2022-07-18T08:08:18;1.40;;;1.17;;
8058;SDS011;4072;42.668;23.396;2022-07-18T08:10:46;6.60;;;2.83;;
8058;SDS011;4072;42.668;23.396;2022-07-18T08:13:14;2.03;;;1.10;;
8058;SDS011;4072;42.668;23.396;2022-07-18T08:15:44;1.65;;;1.52;;
8058;SDS011;4072;42.668;23.396;2022-07-18T08:18:12;1.33;;;0.85;;
8058;SDS011;4072;42.668;23.396;2022-07-18T08:20:40;3.22;;;1.77;;
8058;SDS011;4072;42.668;23.396;2022-07-18T08:23:09;2.08;;;1.10;;
8058;SDS011;4072;42.668;23.396;2022-07-18T08:25:38;2.80;;;1.02;;
8058;SDS011;4072;42.668;23.396;2022-07-18T08:28:07;3.03;;;1.40;;
8058;SDS011;4072;42.668;23.396;2022-07-18T08:30:35;2.17;;;1.08;;
8058;SDS011;4072;42.668;23.396;2022-07-18T08:33:05;1.90;;;1.30;;
8058;SDS011;4072;42.668;23.396;2022-07-18T08:35:35;3.53;;;1.30;;
8058;SDS011;4072;42.668;23.396;2022-07-18T08:38:03;3.00;;;1.48;;
8058;SDS011;4072;42.668;23.396;2022-07-18T08:40:31;2.42;;;1.33;;
8058;SDS011;4072;42.668;23.396;2022-07-18T08:42:59;3.70;;;1.52;;
8058;SDS011;4072;42.668;23.396;2022-07-18T08:45:47;5.43;;;3.10;;
8058;SDS011;4072;42.668;23.396;2022-07-18T08:48:17;3.30;;;2.00;;
8058;SDS011;4072;42.668;23.396;2022-07-18T08:50:45;3.10;;;1.27;;
8058;SDS011;4072;42.668;23.396;2022-07-18T08:53:14;8.50;;;4.93;;
8058;SDS011;4072;42.668;23.396;2022-07-18T08:55:42;5.07;;;2.97;;
8058;SDS011;4072;42.668;23.396;2022-07-18T08:58:11;1.17;;;1.00;;
8058;SDS011;4072;42.668;23.396;2022-07-18T09:01:01;1.25;;;1.00;;
8058;SDS011;4072;42.668;23.396;2022-07-18T09:03:30;3.90;;;1.35;;
8058;SDS011;4072;42.668;23.396;2022-07-18T09:06:02;3.80;;;3.10;;
8058;SDS011;4072;42.668;23.396;2022-07-18T09:08:31;2.55;;;1.23;;
8058;SDS011;4072;42.668;23.396;2022-07-18T09:11:00;3.28;;;1.90;;
8058;SDS011;4072;42.668;23.396;2022-07-18T09:13:34;3.72;;;1.85;;
8058;SDS011;4072;42.668;23.396;2022-07-18T09:16:03;4.15;;;2.40;;
8058;SDS011;4072;42.668;23.396;2022-07-18T09:18:33;2.28;;;1.48;;
8058;SDS011;4072;42.668;23.396;2022-07-18T09:21:04;4.43;;;1.27;;
8058;SDS011;4072;42.668;23.396;2022-07-18T09:23:33;3.05;;;1.80;;
8058;SDS011;4072;42.668;23.396;2022-07-18T09:26:02;1.90;;;1.50;;
8058;SDS011;4072;42.668;23.396;2022-07-18T09:28:44;3.15;;;1.95;;
8058;SDS011;4072;42.668;23.396;2022-07-18T09:31:32;4.30;;;2.65;;
8058;SDS011;4072;42.668;23.396;2022-07-18T09:34:03;5.10;;;2.83;;
8058;SDS011;4072;42.668;23.396;2022-07-18T09:36:32;1.65;;;1.52;;
8058;SDS011;4072;42.668;23.396;2022-07-18T09:39:16;3.47;;;1.85;;
8058;SDS011;4072;42.668;23.396;2022-07-18T09:41:44;3.05;;;1.65;;
8058;SDS011;4072;42.668;23.396;2022-07-18T09:44:15;7.35;;;1.67;;
8058;SDS011;4072;42.668;23.396;2022-07-18T09:46:59;2.65;;;1.75;;
8058;SDS011;4072;42.668;23.396;2022-07-18T09:49:30;4.00;;;1.70;;
8058;SDS011;4072;42.668;23.396;2022-07-18T09:52:02;3.75;;;1.80;;
8058;SDS011;4072;42.668;23.396;2022-07-18T09:57:23;2.55;;;1.48;;
8058;SDS011;4072;42.668;23.396;2022-07-18T09:59:51;2.75;;;1.42;;
8058;SDS011;4072;42.668;23.396;2022-07-18T10:02:18;5.22;;;3.13;;
8058;SDS011;4072;42.668;23.396;2022-07-18T10:04:48;5.20;;;3.97;;
8058;SDS011;4072;42.668;23.396;2022-07-18T10:07:18;3.35;;;1.60;;
8058;SDS011;4072;42.668;23.396;2022-07-18T10:09:46;3.72;;;1.58;;
8058;SDS011;4072;42.668;23.396;2022-07-18T10:12:14;3.22;;;1.77;;
8058;SDS011;4072;42.668;23.396;2022-07-18T10:14:43;2.15;;;1.88;;
8058;SDS011;4072;42.668;23.396;2022-07-18T10:17:11;3.88;;;1.95;;
8058;SDS011;4072;42.668;23.396;2022-07-18T10:19:39;8.65;;;2.58;;
8058;SDS011;4072;42.668;23.396;2022-07-18T10:22:08;2.78;;;1.98;;
8058;SDS011;4072;42.668;23.396;2022-07-18T10:24:37;3.83;;;1.83;;
8058;SDS011;4072;42.668;23.396;2022-07-18T10:27:13;3.15;;;1.58;;
8058;SDS011;4072;42.668;23.396;2022-07-18T10:32:31;4.80;;;1.80;;
8058;SDS011;4072;42.668;23.396;2022-07-18T10:34:59;3.10;;;1.67;;
8058;SDS011;4072;42.668;23.396;2022-07-18T10:37:29;3.67;;;1.90;;
8058;SDS011;4072;42.668;23.396;2022-07-18T10:40:20;1.98;;;1.50;;
8058;SDS011;4072;42.668;23.396;2022-07-18T10:45:42;3.03;;;1.65;;
8058;SDS011;4072;42.668;23.396;2022-07-18T10:51:00;4.47;;;1.88;;
8058;SDS011;4072;42.668;23.396;2022-07-18T10:56:13;2.72;;;1.67;;
8058;SDS011;4072;42.668;23.396;2022-07-18T10:58:41;2.35;;;1.50;;
8058;SDS011;4072;42.668;23.396;2022-07-18T11:01:12;3.20;;;1.70;;
8058;SDS011;4072;42.668;23.396;2022-07-18T11:03:42;2.17;;;1.63;;
8058;SDS011;4072;42.668;23.396;2022-07-18T11:06:11;3.38;;;2.50;;
8058;SDS011;4072;42.668;23.396;2022-07-18T11:08:38;4.40;;;1.70;;
8058;SDS011;4072;42.668;23.396;2022-07-18T11:11:09;3.13;;;1.42;;
8058;SDS011;4072;42.668;23.396;2022-07-18T11:13:40;4.18;;;2.22;;
8058;SDS011;4072;42.668;23.396;2022-07-18T11:16:10;4.03;;;1.58;;
8058;SDS011;4072;42.668;23.396;2022-07-18T11:21:28;3.15;;;2.30;;
8058;SDS011;4072;42.668;23.396;2022-07-18T11:24:04;2.95;;;1.70;;
8058;SDS011;4072;42.668;23.396;2022-07-18T11:26:34;2.20;;;1.63;;
8058;SDS011;4072;42.668;23.396;2022-07-18T11:29:05;3.47;;;1.77;;
8058;SDS011;4072;42.668;23.396;2022-07-18T11:31:44;2.15;;;1.52;;
8058;SDS011;4072;42.668;23.396;2022-07-18T11:34:13;3.78;;;1.50;;
8058;SDS011;4072;42.668;23.396;2022-07-18T11:36:42;8.18;;;1.75;;
8058;SDS011;4072;42.668;23.396;2022-07-18T11:39:11;1.83;;;1.55;;
8058;SDS011;4072;42.668;23.396;2022-07-18T11:41:40;3.33;;;1.88;;
8058;SDS011;4072;42.668;23.396;2022-07-18T11:44:19;5.15;;;1.67;;
8058;SDS011;4072;42.668;23.396;2022-07-18T11:47:00;2.92;;;1.52;;
8058;SDS011;4072;42.668;23.396;2022-07-18T11:49:31;4.00;;;1.75;;
8058;SDS011;4072;42.668;23.396;2022-07-18T11:51:59;2.97;;;1.75;;
8058;SDS011;4072;42.668;23.396;2022-07-18T11:54:27;6.65;;;2.50;;
8058;SDS011;4072;42.668;23.396;2022-07-18T11:56:56;3.47;;;2.60;;
8058;SDS011;4072;42.668;23.396;2022-07-18T11:59:35;2.95;;;2.00;;
8058;SDS011;4072;42.668;23.396;2022-07-18T12:02:03;2.33;;;1.90;;
8058;SDS011;4072;42.668;23.396;2022-07-18T12:04:31;4.22;;;1.83;;
8058;SDS011;4072;42.668;23.396;2022-07-18T12:07:16;5.32;;;2.58;;
8058;SDS011;4072;42.668;23.396;2022-07-18T12:09:44;4.00;;;3.30;;
8058;SDS011;4072;42.668;23.396;2022-07-18T12:12:13;3.45;;;2.22;;
8058;SDS011;4072;42.668;23.396;2022-07-18T12:14:58;1.92;;;1.70;;
8058;SDS011;4072;42.668;23.396;2022-07-18T12:17:28;4.15;;;2.15;;
8058;SDS011;4072;42.668;23.396;2022-07-18T12:20:10;2.28;;;1.65;;
8058;SDS011;4072;42.668;23.396;2022-07-18T12:25:33;4.00;;;1.67;;
8058;SDS011;4072;42.668;23.396;2022-07-18T12:28:11;5.25;;;2.30;;
8058;SDS011;4072;42.668;23.396;2022-07-18T12:30:40;4.88;;;1.85;;
8058;SDS011;4072;42.668;23.396;2022-07-18T12:33:09;3.42;;;1.80;;
8058;SDS011;4072;42.668;23.396;2022-07-18T12:35:37;4.35;;;1.80;;
8058;SDS011;4072;42.668;23.396;2022-07-18T12:38:07;4.00;;;2.40;;
8058;SDS011;4072;42.668;23.396;2022-07-18T12:40:39;4.05;;;2.33;;
8058;SDS011;4072;42.668;23.396;2022-07-18T12:43:08;2.70;;;1.95;;
8058;SDS011;4072;42.668;23.396;2022-07-18T12:45:37;2.92;;;1.90;;
8058;SDS011;4072;42.668;23.396;2022-07-18T12:48:08;6.15;;;1.98;;
8058;SDS011;4072;42.668;23.396;2022-07-18T12:50:36;2.25;;;1.80;;
8058;SDS011;4072;42.668;23.396;2022-07-18T12:53:05;5.03;;;2.47;;
8058;SDS011;4072;42.668;23.396;2022-07-18T12:55:33;5.28;;;2.53;;
8058;SDS011;4072;42.668;23.396;2022-07-18T12:58:01;2.70;;;2.20;;
8058;SDS011;4072;42.668;23.396;2022-07-18T13:00:30;4.90;;;2.22;;
8058;SDS011;4072;42.668;23.396;2022-07-18T13:02:58;2.67;;;1.90;;
8058;SDS011;4072;42.668;23.396;2022-07-18T13:05:29;5.32;;;2.05;;
8058;SDS011;4072;42.668;23.396;2022-07-18T13:07:57;4.10;;;1.90;;
8058;SDS011;4072;42.668;23.396;2022-07-18T13:10:25;2.72;;;1.98;;
8058;SDS011;4072;42.668;23.396;2022-07-18T13:12:53;3.67;;;2.15;;
8058;SDS011;4072;42.668;23.396;2022-07-18T13:15:22;3.28;;;2.08;;
8058;SDS011;4072;42.668;23.396;2022-07-18T13:17:50;2.20;;;1.65;;
8058;SDS011;4072;42.668;23.396;2022-07-18T13:20:20;3.95;;;1.95;;
8058;SDS011;4072;42.668;23.396;2022-07-18T13:22:53;2.00;;;1.80;;
8058;SDS011;4072;42.668;23.396;2022-07-18T13:25:21;3.53;;;2.20;;
8058;SDS011;4072;42.668;23.396;2022-07-18T13:27:49;5.47;;;2.10;;
8058;SDS011;4072;42.668;23.396;2022-07-18T13:30:17;4.57;;;2.17;;
8058;SDS011;4072;42.668;23.396;2022-07-18T13:32:45;2.47;;;2.08;;
8058;SDS011;4072;42.668;23.396;2022-07-18T13:35:14;3.20;;;2.20;;
8058;SDS011;4072;42.668;23.396;2022-07-18T13:37:42;2.10;;;1.90;;
8058;SDS011;4072;42.668;23.396;2022-07-18T13:40:13;5.28;;;2.90;;
8058;SDS011;4072;42.668;23.396;2022-07-18T13:42:42;3.47;;;1.98;;
8058;SDS011;4072;42.668;23.396;2022-07-18T13:45:10;4.18;;;2.20;;
8058;SDS011;4072;42.668;23.396;2022-07-18T13:47:40;3.50;;;2.50;;
8058;SDS011;4072;42.668;23.396;2022-07-18T13:50:09;3.95;;;2.13;;
8058;SDS011;4072;42.668;23.396;2022-07-18T13:52:37;2.75;;;1.90;;
8058;SDS011;4072;42.668;23.396;2022-07-18T13:55:06;7.05;;;2.97;;
8058;SDS011;4072;42.668;23.396;2022-07-18T13:57:36;6.05;;;2.30;;
8058;SDS011;4072;42.668;23.396;2022-07-18T14:00:06;3.03;;;2.05;;
8058;SDS011;4072;42.668;23.396;2022-07-18T14:02:34;4.65;;;2.70;;
8058;SDS011;4072;42.668;23.396;2022-07-18T14:05:03;4.63;;;2.30;;
8058;SDS011;4072;42.668;23.396;2022-07-18T14:07:39;5.82;;;2.60;;
8058;SDS011;4072;42.668;23.396;2022-07-18T14:10:07;3.35;;;2.08;;
8058;SDS011;4072;42.668;23.396;2022-07-18T14:12:37;2.38;;;2.08;;
8058;SDS011;4072;42.668;23.396;2022-07-18T14:15:05;2.38;;;1.85;;
8058;SDS011;4072;42.668;23.396;2022-07-18T14:17:33;8.20;;;2.60;;
8058;SDS011;4072;42.668;23.396;2022-07-18T14:20:01;2.47;;;2.20;;
8058;SDS011;4072;42.668;23.396;2022-07-18T14:22:29;2.33;;;2.20;;
8058;SDS011;4072;42.668;23.396;2022-07-18T14:24:58;3.58;;;2.38;;
8058;SDS011;4072;42.668;23.396;2022-07-18T14:27:26;4.10;;;2.45;;
8058;SDS011;4072;42.668;23.396;2022-07-18T14:29:55;2.92;;;2.42;;
8058;SDS011;4072;42.668;23.396;2022-07-18T14:32:25;3.13;;;2.60;;
8058;SDS011;4072;42.668;23.396;2022-07-18T14:34:53;2.58;;;1.77;;
8058;SDS011;4072;42.668;23.396;2022-07-18T14:37:21;3.88;;;2.63;;
8058;SDS011;4072;42.668;23.396;2022-07-18T14:39:49;4.22;;;2.45;;
8058;SDS011;4072;42.668;23.396;2022-07-18T14:42:21;2.92;;;2.22;;
8058;SDS011;4072;42.668;23.396;2022-07-18T14:44:50;3.85;;;2.30;;
8058;SDS011;4072;42.668;23.396;2022-07-18T14:47:20;2.38;;;2.10;;
8058;SDS011;4072;42.668;23.396;2022-07-18T14:49:48;2.75;;;2.40;;
8058;SDS011;4072;42.668;23.396;2022-07-18T14:52:16;4.78;;;2.60;;
8058;SDS011;4072;42.668;23.396;2022-07-18T14:54:44;2.80;;;2.60;;
8058;SDS011;4072;42.668;23.396;2022-07-18T14:57:12;3.90;;;2.60;;
8058;SDS011;4072;42.668;23.396;2022-07-18T14:59:43;2.60;;;2.40;;
8058;SDS011;4072;42.668;23.396;2022-07-18T15:02:11;2.53;;;2.28;;
8058;SDS011;4072;42.668;23.396;2022-07-18T15:04:42;3.45;;;3.15;;
8058;SDS011;4072;42.668;23.396;2022-07-18T15:07:11;4.30;;;2.83;;
8058;SDS011;4072;42.668;23.396;2022-07-18T15:09:39;4.22;;;2.28;;
8058;SDS011;4072;42.668;23.396;2022-07-18T15:12:07;3.90;;;2.35;;
8058;SDS011;4072;42.668;23.396;2022-07-18T15:14:35;3.85;;;2.83;;
8058;SDS011;4072;42.668;23.396;2022-07-18T15:17:04;4.22;;;2.58;;
8058;SDS011;4072;42.668;23.396;2022-07-18T15:19:32;2.55;;;2.20;;
8058;SDS011;4072;42.668;23.396;2022-07-18T15:22:02;2.58;;;2.38;;
8058;SDS011;4072;42.668;23.396;2022-07-18T15:24:31;2.42;;;2.20;;
8058;SDS011;4072;42.668;23.396;2022-07-18T15:27:00;4.07;;;2.33;;
8058;SDS011;4072;42.668;23.396;2022-07-18T15:29:28;6.10;;;3.20;;
8058;SDS011;4072;42.668;23.396;2022-07-18T15:31:56;4.40;;;2.90;;
8058;SDS011;4072;42.668;23.396;2022-07-18T15:34:25;3.50;;;2.88;;